sensor_id;sensor_type;location;lat;lon;timestamp;P1;durP1;ratioP1;P2;durP2;ratioP2
78296;SDS011;67555;47.660;19.622;2024-02-23T00:02:16;4.20;;;2.70;;
78296;SDS011;67555;47.660;19.622;2024-02-23T00:04:42;5.00;;;2.17;;
78296;SDS011;67555;47.660;19.622;2024-02-23T00:07:07;2.50;;;1.77;;
78296;SDS011;67555;47.660;19.622;2024-02-23T00:09:33;2.47;;;1.80;;
78296;SDS011;67555;47.660;19.622;2024-02-23T00:11:59;3.50;;;2.13;;
78296;SDS011;67555;47.660;19.622;2024-02-23T00:14:25;2.80;;;1.90;;
78296;SDS011;67555;47.660;19.622;2024-02-23T00:16:50;2.30;;;1.95;;
78296;SDS011;67555;47.660;19.622;2024-02-23T00:19:16;4.78;;;1.92;;
78296;SDS011;67555;47.660;19.622;2024-02-23T00:21:44;2.85;;;1.92;;
78296;SDS011;67555;47.660;19.622;2024-02-23T00:24:14;6.72;;;2.10;;
78296;SDS011;67555;47.660;19.622;2024-02-23T00:26:41;3.70;;;2.10;;
78296;SDS011;67555;47.660;19.622;2024-02-23T00:29:07;3.75;;;1.92;;
78296;SDS011;67555;47.660;19.622;2024-02-23T00:31:34;5.47;;;1.85;;
78296;SDS011;67555;47.660;19.622;2024-02-23T00:34:01;3.92;;;2.00;;
78296;SDS011;67555;47.660;19.622;2024-02-23T00:36:26;7.68;;;2.47;;
78296;SDS011;67555;47.660;19.622;2024-02-23T00:38:52;2.15;;;1.67;;
78296;SDS011;67555;47.660;19.622;2024-02-23T00:41:18;2.78;;;2.17;;
78296;SDS011;67555;47.660;19.622;2024-02-23T00:43:43;4.05;;;2.15;;
78296;SDS011;67555;47.660;19.622;2024-02-23T00:46:09;2.20;;;1.75;;
78296;SDS011;67555;47.660;19.622;2024-02-23T00:48:35;3.10;;;2.28;;
78296;SDS011;67555;47.660;19.622;2024-02-23T00:51:01;5.45;;;2.25;;
78296;SDS011;67555;47.660;19.622;2024-02-23T00:53:28;2.85;;;1.95;;
78296;SDS011;67555;47.660;19.622;2024-02-23T00:55:55;4.60;;;2.03;;
78296;SDS011;67555;47.660;19.622;2024-02-23T00:58:21;3.28;;;2.90;;
78296;SDS011;67555;47.660;19.622;2024-02-23T01:00:46;5.03;;;2.17;;
78296;SDS011;67555;47.660;19.622;2024-02-23T01:03:12;5.35;;;2.00;;
78296;SDS011;67555;47.660;19.622;2024-02-23T01:05:38;3.88;;;2.15;;
78296;SDS011;67555;47.660;19.622;2024-02-23T01:08:04;3.20;;;1.98;;
78296;SDS011;67555;47.660;19.622;2024-02-23T01:10:30;3.80;;;2.67;;
78296;SDS011;67555;47.660;19.622;2024-02-23T01:12:56;3.25;;;2.15;;
78296;SDS011;67555;47.660;19.622;2024-02-23T01:15:22;3.42;;;2.10;;
78296;SDS011;67555;47.660;19.622;2024-02-23T01:17:48;12.82;;;2.47;;
78296;SDS011;67555;47.660;19.622;2024-02-23T01:20:13;4.97;;;2.53;;
78296;SDS011;67555;47.660;19.622;2024-02-23T01:22:39;4.13;;;2.20;;
78296;SDS011;67555;47.660;19.622;2024-02-23T01:25:05;3.40;;;2.47;;
78296;SDS011;67555;47.660;19.622;2024-02-23T01:27:31;4.75;;;2.30;;
78296;SDS011;67555;47.660;19.622;2024-02-23T01:29:56;4.10;;;2.03;;
78296;SDS011;67555;47.660;19.622;2024-02-23T01:32:22;5.28;;;2.50;;
78296;SDS011;67555;47.660;19.622;2024-02-23T01:34:48;4.40;;;2.17;;
78296;SDS011;67555;47.660;19.622;2024-02-23T01:37:14;4.53;;;2.33;;
78296;SDS011;67555;47.660;19.622;2024-02-23T01:39:39;3.92;;;2.58;;
78296;SDS011;67555;47.660;19.622;2024-02-23T01:42:05;3.70;;;2.30;;
78296;SDS011;67555;47.660;19.622;2024-02-23T01:44:31;4.85;;;2.60;;
78296;SDS011;67555;47.660;19.622;2024-02-23T01:46:57;3.58;;;2.30;;
78296;SDS011;67555;47.660;19.622;2024-02-23T01:49:23;4.78;;;2.50;;
78296;SDS011;67555;47.660;19.622;2024-02-23T01:51:55;4.22;;;2.20;;
78296;SDS011;67555;47.660;19.622;2024-02-23T01:54:22;5.00;;;2.17;;
78296;SDS011;67555;47.660;19.622;2024-02-23T01:56:48;3.72;;;2.60;;
78296;SDS011;67555;47.660;19.622;2024-02-23T01:59:14;4.43;;;2.58;;
78296;SDS011;67555;47.660;19.622;2024-02-23T02:01:42;4.88;;;2.38;;
78296;SDS011;67555;47.660;19.622;2024-02-23T02:06:34;3.85;;;2.50;;
78296;SDS011;67555;47.660;19.622;2024-02-23T02:09:00;4.85;;;2.28;;
78296;SDS011;67555;47.660;19.622;2024-02-23T02:11:26;5.07;;;2.45;;
78296;SDS011;67555;47.660;19.622;2024-02-23T02:13:52;5.45;;;1.80;;
78296;SDS011;67555;47.660;19.622;2024-02-23T02:16:18;4.38;;;2.42;;
78296;SDS011;67555;47.660;19.622;2024-02-23T02:18:43;6.88;;;2.35;;
78296;SDS011;67555;47.660;19.622;2024-02-23T02:21:11;3.92;;;2.45;;
78296;SDS011;67555;47.660;19.622;2024-02-23T02:23:37;4.40;;;2.20;;
78296;SDS011;67555;47.660;19.622;2024-02-23T02:26:03;4.45;;;2.03;;
78296;SDS011;67555;47.660;19.622;2024-02-23T02:28:29;3.22;;;2.00;;
78296;SDS011;67555;47.660;19.622;2024-02-23T02:30:55;5.60;;;2.88;;
78296;SDS011;67555;47.660;19.622;2024-02-23T02:33:21;3.00;;;2.20;;
78296;SDS011;67555;47.660;19.622;2024-02-23T02:35:48;6.55;;;2.63;;
78296;SDS011;67555;47.660;19.622;2024-02-23T02:38:15;10.77;;;2.63;;
78296;SDS011;67555;47.660;19.622;2024-02-23T02:40:41;4.20;;;2.63;;
78296;SDS011;67555;47.660;19.622;2024-02-23T02:43:07;3.63;;;1.92;;
78296;SDS011;67555;47.660;19.622;2024-02-23T02:45:33;4.63;;;2.15;;
78296;SDS011;67555;47.660;19.622;2024-02-23T02:48:02;3.13;;;2.17;;
78296;SDS011;67555;47.660;19.622;2024-02-23T02:50:28;4.90;;;2.17;;
78296;SDS011;67555;47.660;19.622;2024-02-23T02:52:54;3.20;;;2.47;;
78296;SDS011;67555;47.660;19.622;2024-02-23T02:55:20;3.70;;;2.00;;
78296;SDS011;67555;47.660;19.622;2024-02-23T02:57:45;3.35;;;1.98;;
78296;SDS011;67555;47.660;19.622;2024-02-23T03:00:11;4.07;;;2.58;;
78296;SDS011;67555;47.660;19.622;2024-02-23T03:02:37;2.22;;;2.03;;
78296;SDS011;67555;47.660;19.622;2024-02-23T03:05:03;3.85;;;2.28;;
78296;SDS011;67555;47.660;19.622;2024-02-23T03:07:29;4.18;;;2.60;;
78296;SDS011;67555;47.660;19.622;2024-02-23T03:09:55;4.53;;;2.63;;
78296;SDS011;67555;47.660;19.622;2024-02-23T03:12:21;6.85;;;2.30;;
78296;SDS011;67555;47.660;19.622;2024-02-23T03:14:47;2.55;;;1.90;;
78296;SDS011;67555;47.660;19.622;2024-02-23T03:17:13;3.13;;;2.20;;
78296;SDS011;67555;47.660;19.622;2024-02-23T03:19:38;6.05;;;2.30;;
78296;SDS011;67555;47.660;19.622;2024-02-23T03:22:04;2.90;;;2.00;;
78296;SDS011;67555;47.660;19.622;2024-02-23T03:24:30;6.35;;;2.50;;
78296;SDS011;67555;47.660;19.622;2024-02-23T03:26:56;3.20;;;2.55;;
78296;SDS011;67555;47.660;19.622;2024-02-23T03:29:22;5.30;;;2.30;;
78296;SDS011;67555;47.660;19.622;2024-02-23T03:31:55;4.20;;;2.55;;
78296;SDS011;67555;47.660;19.622;2024-02-23T03:34:21;3.40;;;2.10;;
78296;SDS011;67555;47.660;19.622;2024-02-23T03:36:47;3.78;;;2.30;;
78296;SDS011;67555;47.660;19.622;2024-02-23T03:39:12;4.30;;;2.70;;
78296;SDS011;67555;47.660;19.622;2024-02-23T03:41:38;5.38;;;2.83;;
78296;SDS011;67555;47.660;19.622;2024-02-23T03:44:04;5.18;;;2.58;;
78296;SDS011;67555;47.660;19.622;2024-02-23T03:46:30;5.20;;;2.70;;
78296;SDS011;67555;47.660;19.622;2024-02-23T03:48:56;5.90;;;2.72;;
78296;SDS011;67555;47.660;19.622;2024-02-23T03:51:22;5.88;;;2.40;;
78296;SDS011;67555;47.660;19.622;2024-02-23T03:53:48;4.45;;;2.95;;
78296;SDS011;67555;47.660;19.622;2024-02-23T03:56:14;3.95;;;2.50;;
78296;SDS011;67555;47.660;19.622;2024-02-23T03:58:40;6.03;;;3.03;;
78296;SDS011;67555;47.660;19.622;2024-02-23T04:01:06;5.00;;;2.40;;
78296;SDS011;67555;47.660;19.622;2024-02-23T04:03:32;4.72;;;2.60;;
78296;SDS011;67555;47.660;19.622;2024-02-23T04:05:57;4.30;;;2.35;;
78296;SDS011;67555;47.660;19.622;2024-02-23T04:08:23;3.20;;;2.30;;
78296;SDS011;67555;47.660;19.622;2024-02-23T04:10:49;2.92;;;2.20;;
78296;SDS011;67555;47.660;19.622;2024-02-23T04:13:14;4.55;;;2.63;;
78296;SDS011;67555;47.660;19.622;2024-02-23T04:15:40;3.47;;;2.05;;
78296;SDS011;67555;47.660;19.622;2024-02-23T04:18:06;4.55;;;2.40;;
78296;SDS011;67555;47.660;19.622;2024-02-23T04:20:32;3.78;;;2.63;;
78296;SDS011;67555;47.660;19.622;2024-02-23T04:22:58;4.97;;;2.45;;
78296;SDS011;67555;47.660;19.622;2024-02-23T04:25:24;5.28;;;2.67;;
78296;SDS011;67555;47.660;19.622;2024-02-23T04:27:49;3.75;;;2.30;;
78296;SDS011;67555;47.660;19.622;2024-02-23T04:30:15;5.35;;;2.65;;
78296;SDS011;67555;47.660;19.622;2024-02-23T04:32:41;7.05;;;2.70;;
78296;SDS011;67555;47.660;19.622;2024-02-23T04:35:07;3.75;;;2.20;;
78296;SDS011;67555;47.660;19.622;2024-02-23T04:37:33;3.97;;;2.50;;
78296;SDS011;67555;47.660;19.622;2024-02-23T04:39:59;4.25;;;2.85;;
78296;SDS011;67555;47.660;19.622;2024-02-23T04:42:24;4.60;;;2.80;;
78296;SDS011;67555;47.660;19.622;2024-02-23T04:44:50;4.78;;;2.58;;
78296;SDS011;67555;47.660;19.622;2024-02-23T04:47:19;11.45;;;3.00;;
78296;SDS011;67555;47.660;19.622;2024-02-23T04:49:45;5.25;;;3.00;;
78296;SDS011;67555;47.660;19.622;2024-02-23T04:52:10;5.80;;;3.15;;
78296;SDS011;67555;47.660;19.622;2024-02-23T04:54:36;5.65;;;3.10;;
78296;SDS011;67555;47.660;19.622;2024-02-23T04:57:02;6.03;;;3.10;;
78296;SDS011;67555;47.660;19.622;2024-02-23T04:59:28;5.13;;;2.60;;
78296;SDS011;67555;47.660;19.622;2024-02-23T05:01:55;5.05;;;2.60;;
78296;SDS011;67555;47.660;19.622;2024-02-23T05:04:20;6.85;;;3.30;;
78296;SDS011;67555;47.660;19.622;2024-02-23T05:06:46;3.88;;;2.95;;
78296;SDS011;67555;47.660;19.622;2024-02-23T05:09:12;5.47;;;3.08;;
78296;SDS011;67555;47.660;19.622;2024-02-23T05:11:38;8.07;;;3.50;;
78296;SDS011;67555;47.660;19.622;2024-02-23T05:14:04;4.70;;;2.83;;
78296;SDS011;67555;47.660;19.622;2024-02-23T05:16:30;4.60;;;3.08;;
78296;SDS011;67555;47.660;19.622;2024-02-23T05:18:56;4.70;;;2.92;;
78296;SDS011;67555;47.660;19.622;2024-02-23T05:21:22;5.53;;;3.08;;
78296;SDS011;67555;47.660;19.622;2024-02-23T05:23:48;4.63;;;2.90;;
78296;SDS011;67555;47.660;19.622;2024-02-23T05:26:13;3.85;;;2.95;;
78296;SDS011;67555;47.660;19.622;2024-02-23T05:28:39;4.22;;;2.55;;
78296;SDS011;67555;47.660;19.622;2024-02-23T05:31:05;7.80;;;2.83;;
78296;SDS011;67555;47.660;19.622;2024-02-23T05:33:31;5.25;;;2.75;;
78296;SDS011;67555;47.660;19.622;2024-02-23T05:35:56;3.97;;;2.92;;
78296;SDS011;67555;47.660;19.622;2024-02-23T05:38:22;5.38;;;2.63;;
78296;SDS011;67555;47.660;19.622;2024-02-23T05:40:48;5.43;;;2.42;;
78296;SDS011;67555;47.660;19.622;2024-02-23T05:43:14;6.45;;;2.97;;
78296;SDS011;67555;47.660;19.622;2024-02-23T05:45:39;6.80;;;3.35;;
78296;SDS011;67555;47.660;19.622;2024-02-23T05:48:05;16.08;;;7.55;;
78296;SDS011;67555;47.660;19.622;2024-02-23T05:50:32;5.32;;;3.17;;
78296;SDS011;67555;47.660;19.622;2024-02-23T05:52:57;7.50;;;3.60;;
78296;SDS011;67555;47.660;19.622;2024-02-23T05:55:23;8.23;;;3.17;;
78296;SDS011;67555;47.660;19.622;2024-02-23T05:57:49;4.95;;;2.58;;
78296;SDS011;67555;47.660;19.622;2024-02-23T06:00:18;5.35;;;3.50;;
78296;SDS011;67555;47.660;19.622;2024-02-23T06:05:12;13.75;;;6.53;;
78296;SDS011;67555;47.660;19.622;2024-02-23T06:07:38;9.70;;;4.97;;
78296;SDS011;67555;47.660;19.622;2024-02-23T06:10:05;6.68;;;3.28;;
78296;SDS011;67555;47.660;19.622;2024-02-23T06:12:31;4.82;;;2.85;;
78296;SDS011;67555;47.660;19.622;2024-02-23T06:14:56;4.00;;;2.70;;
78296;SDS011;67555;47.660;19.622;2024-02-23T06:17:23;4.72;;;2.75;;
78296;SDS011;67555;47.660;19.622;2024-02-23T06:19:49;6.32;;;3.65;;
78296;SDS011;67555;47.660;19.622;2024-02-23T06:22:17;7.70;;;3.15;;
78296;SDS011;67555;47.660;19.622;2024-02-23T06:24:46;8.05;;;3.80;;
78296;SDS011;67555;47.660;19.622;2024-02-23T06:27:12;7.22;;;3.80;;
78296;SDS011;67555;47.660;19.622;2024-02-23T06:29:38;7.38;;;3.65;;
78296;SDS011;67555;47.660;19.622;2024-02-23T06:32:03;6.20;;;4.13;;
78296;SDS011;67555;47.660;19.622;2024-02-23T06:34:29;4.65;;;3.42;;
78296;SDS011;67555;47.660;19.622;2024-02-23T06:36:55;5.15;;;3.20;;
78296;SDS011;67555;47.660;19.622;2024-02-23T06:39:21;5.45;;;3.10;;
78296;SDS011;67555;47.660;19.622;2024-02-23T06:41:47;9.55;;;3.85;;
78296;SDS011;67555;47.660;19.622;2024-02-23T06:44:12;4.38;;;3.20;;
78296;SDS011;67555;47.660;19.622;2024-02-23T06:46:38;6.50;;;3.60;;
78296;SDS011;67555;47.660;19.622;2024-02-23T06:49:04;5.38;;;3.40;;
78296;SDS011;67555;47.660;19.622;2024-02-23T06:51:30;8.52;;;4.13;;
78296;SDS011;67555;47.660;19.622;2024-02-23T06:53:56;3.90;;;2.42;;
78296;SDS011;67555;47.660;19.622;2024-02-23T06:56:22;5.78;;;3.03;;
78296;SDS011;67555;47.660;19.622;2024-02-23T06:58:48;5.53;;;3.00;;
78296;SDS011;67555;47.660;19.622;2024-02-23T07:01:14;5.68;;;3.28;;
78296;SDS011;67555;47.660;19.622;2024-02-23T07:03:39;7.00;;;3.78;;
78296;SDS011;67555;47.660;19.622;2024-02-23T07:06:07;6.60;;;3.65;;
78296;SDS011;67555;47.660;19.622;2024-02-23T07:08:35;5.47;;;3.55;;
78296;SDS011;67555;47.660;19.622;2024-02-23T07:11:01;5.22;;;3.65;;
78296;SDS011;67555;47.660;19.622;2024-02-23T07:13:27;5.70;;;3.60;;
78296;SDS011;67555;47.660;19.622;2024-02-23T07:15:52;9.82;;;3.53;;
78296;SDS011;67555;47.660;19.622;2024-02-23T07:18:18;5.55;;;3.70;;
78296;SDS011;67555;47.660;19.622;2024-02-23T07:20:44;6.03;;;3.25;;
78296;SDS011;67555;47.660;19.622;2024-02-23T07:23:09;7.70;;;3.78;;
78296;SDS011;67555;47.660;19.622;2024-02-23T07:25:35;5.25;;;3.33;;
78296;SDS011;67555;47.660;19.622;2024-02-23T07:28:01;7.20;;;4.13;;
78296;SDS011;67555;47.660;19.622;2024-02-23T07:30:27;5.88;;;3.55;;
78296;SDS011;67555;47.660;19.622;2024-02-23T07:32:53;8.95;;;4.18;;
78296;SDS011;67555;47.660;19.622;2024-02-23T07:35:19;6.85;;;3.55;;
78296;SDS011;67555;47.660;19.622;2024-02-23T07:37:44;6.15;;;3.47;;
78296;SDS011;67555;47.660;19.622;2024-02-23T07:40:11;6.20;;;3.35;;
78296;SDS011;67555;47.660;19.622;2024-02-23T07:42:37;7.20;;;3.50;;
78296;SDS011;67555;47.660;19.622;2024-02-23T07:45:03;10.23;;;5.15;;
78296;SDS011;67555;47.660;19.622;2024-02-23T07:47:30;9.77;;;3.88;;
78296;SDS011;67555;47.660;19.622;2024-02-23T07:49:56;11.95;;;5.53;;
78296;SDS011;67555;47.660;19.622;2024-02-23T07:52:22;10.27;;;6.28;;
78296;SDS011;67555;47.660;19.622;2024-02-23T07:54:49;11.82;;;6.28;;
78296;SDS011;67555;47.660;19.622;2024-02-23T07:57:17;10.52;;;5.78;;
78296;SDS011;67555;47.660;19.622;2024-02-23T07:59:43;7.57;;;4.18;;
78296;SDS011;67555;47.660;19.622;2024-02-23T08:02:09;7.50;;;4.03;;
78296;SDS011;67555;47.660;19.622;2024-02-23T08:04:35;7.80;;;4.95;;
78296;SDS011;67555;47.660;19.622;2024-02-23T08:07:01;8.45;;;5.35;;
78296;SDS011;67555;47.660;19.622;2024-02-23T08:09:26;9.25;;;6.43;;
78296;SDS011;67555;47.660;19.622;2024-02-23T08:11:52;5.65;;;4.22;;
78296;SDS011;67555;47.660;19.622;2024-02-23T08:14:18;13.95;;;6.13;;
78296;SDS011;67555;47.660;19.622;2024-02-23T08:16:43;27.67;;;9.52;;
78296;SDS011;67555;47.660;19.622;2024-02-23T08:19:09;18.98;;;7.05;;
78296;SDS011;67555;47.660;19.622;2024-02-23T08:21:35;20.95;;;7.00;;
78296;SDS011;67555;47.660;19.622;2024-02-23T08:24:01;7.40;;;4.35;;
78296;SDS011;67555;47.660;19.622;2024-02-23T08:26:27;6.05;;;3.30;;
78296;SDS011;67555;47.660;19.622;2024-02-23T08:28:53;7.30;;;4.35;;
78296;SDS011;67555;47.660;19.622;2024-02-23T08:31:19;6.53;;;3.90;;
78296;SDS011;67555;47.660;19.622;2024-02-23T08:33:46;7.68;;;3.88;;
78296;SDS011;67555;47.660;19.622;2024-02-23T08:36:12;7.28;;;3.50;;
78296;SDS011;67555;47.660;19.622;2024-02-23T08:38:38;6.65;;;3.50;;
78296;SDS011;67555;47.660;19.622;2024-02-23T08:41:03;5.75;;;4.07;;
78296;SDS011;67555;47.660;19.622;2024-02-23T08:43:29;6.10;;;3.90;;
78296;SDS011;67555;47.660;19.622;2024-02-23T08:45:55;7.13;;;4.05;;
78296;SDS011;67555;47.660;19.622;2024-02-23T08:48:20;6.93;;;3.97;;
78296;SDS011;67555;47.660;19.622;2024-02-23T08:50:46;6.03;;;3.53;;
78296;SDS011;67555;47.660;19.622;2024-02-23T08:53:12;6.80;;;3.88;;
78296;SDS011;67555;47.660;19.622;2024-02-23T08:55:37;6.95;;;3.72;;
78296;SDS011;67555;47.660;19.622;2024-02-23T08:58:03;6.20;;;3.65;;
78296;SDS011;67555;47.660;19.622;2024-02-23T09:00:31;9.40;;;3.30;;
78296;SDS011;67555;47.660;19.622;2024-02-23T09:02:57;6.78;;;3.47;;
78296;SDS011;67555;47.660;19.622;2024-02-23T09:05:22;6.78;;;3.55;;
78296;SDS011;67555;47.660;19.622;2024-02-23T09:07:48;7.00;;;4.22;;
78296;SDS011;67555;47.660;19.622;2024-02-23T09:10:14;13.98;;;7.15;;
78296;SDS011;67555;47.660;19.622;2024-02-23T09:12:39;10.10;;;3.38;;
78296;SDS011;67555;47.660;19.622;2024-02-23T09:15:05;5.70;;;3.47;;
78296;SDS011;67555;47.660;19.622;2024-02-23T09:17:31;7.28;;;4.10;;
78296;SDS011;67555;47.660;19.622;2024-02-23T09:19:57;10.05;;;4.70;;
78296;SDS011;67555;47.660;19.622;2024-02-23T09:22:23;6.72;;;3.88;;
78296;SDS011;67555;47.660;19.622;2024-02-23T09:24:49;9.40;;;4.35;;
78296;SDS011;67555;47.660;19.622;2024-02-23T09:27:14;5.88;;;3.95;;
78296;SDS011;67555;47.660;19.622;2024-02-23T09:29:40;5.93;;;3.72;;
78296;SDS011;67555;47.660;19.622;2024-02-23T09:34:34;5.97;;;3.35;;
78296;SDS011;67555;47.660;19.622;2024-02-23T09:37:00;7.07;;;3.70;;
78296;SDS011;67555;47.660;19.622;2024-02-23T09:39:26;5.72;;;3.42;;
78296;SDS011;67555;47.660;19.622;2024-02-23T09:41:55;6.65;;;3.35;;
78296;SDS011;67555;47.660;19.622;2024-02-23T09:44:22;7.57;;;3.72;;
78296;SDS011;67555;47.660;19.622;2024-02-23T09:46:48;6.97;;;3.75;;
78296;SDS011;67555;47.660;19.622;2024-02-23T09:49:17;7.18;;;3.45;;
78296;SDS011;67555;47.660;19.622;2024-02-23T09:51:43;5.75;;;3.10;;
78296;SDS011;67555;47.660;19.622;2024-02-23T09:54:09;5.78;;;3.60;;
78296;SDS011;67555;47.660;19.622;2024-02-23T09:56:35;6.07;;;3.58;;
78296;SDS011;67555;47.660;19.622;2024-02-23T09:59:02;5.20;;;3.25;;
78296;SDS011;67555;47.660;19.622;2024-02-23T10:01:30;5.85;;;3.42;;
78296;SDS011;67555;47.660;19.622;2024-02-23T10:03:58;9.05;;;4.38;;
78296;SDS011;67555;47.660;19.622;2024-02-23T10:06:25;7.65;;;3.80;;
78296;SDS011;67555;47.660;19.622;2024-02-23T10:08:51;6.32;;;3.38;;
78296;SDS011;67555;47.660;19.622;2024-02-23T10:11:19;5.05;;;3.75;;
78296;SDS011;67555;47.660;19.622;2024-02-23T10:13:49;8.73;;;3.58;;
78296;SDS011;67555;47.660;19.622;2024-02-23T10:16:15;5.40;;;3.35;;
78296;SDS011;67555;47.660;19.622;2024-02-23T10:18:41;5.38;;;3.60;;
78296;SDS011;67555;47.660;19.622;2024-02-23T10:21:07;5.63;;;3.67;;
78296;SDS011;67555;47.660;19.622;2024-02-23T10:23:33;5.80;;;3.50;;
78296;SDS011;67555;47.660;19.622;2024-02-23T10:25:59;6.18;;;3.22;;
78296;SDS011;67555;47.660;19.622;2024-02-23T10:28:25;4.82;;;3.15;;
78296;SDS011;67555;47.660;19.622;2024-02-23T10:30:52;6.57;;;3.63;;
78296;SDS011;67555;47.660;19.622;2024-02-23T10:33:19;6.05;;;3.85;;
78296;SDS011;67555;47.660;19.622;2024-02-23T10:35:48;6.03;;;3.88;;
78296;SDS011;67555;47.660;19.622;2024-02-23T10:38:20;6.50;;;3.50;;
78296;SDS011;67555;47.660;19.622;2024-02-23T10:40:47;5.13;;;3.40;;
78296;SDS011;67555;47.660;19.622;2024-02-23T10:43:16;7.43;;;4.47;;
78296;SDS011;67555;47.660;19.622;2024-02-23T10:45:46;7.53;;;3.08;;
78296;SDS011;67555;47.660;19.622;2024-02-23T10:48:12;7.43;;;3.90;;
78296;SDS011;67555;47.660;19.622;2024-02-23T10:50:40;9.02;;;5.15;;
78296;SDS011;67555;47.660;19.622;2024-02-23T10:53:09;6.38;;;3.90;;
78296;SDS011;67555;47.660;19.622;2024-02-23T10:55:36;7.88;;;3.92;;
78296;SDS011;67555;47.660;19.622;2024-02-23T10:58:04;6.68;;;3.60;;
78296;SDS011;67555;47.660;19.622;2024-02-23T11:00:32;6.72;;;4.00;;
78296;SDS011;67555;47.660;19.622;2024-02-23T11:02:58;5.47;;;3.53;;
78296;SDS011;67555;47.660;19.622;2024-02-23T11:05:25;7.15;;;4.00;;
78296;SDS011;67555;47.660;19.622;2024-02-23T11:07:55;6.40;;;4.30;;
78296;SDS011;67555;47.660;19.622;2024-02-23T11:10:21;6.45;;;3.60;;
78296;SDS011;67555;47.660;19.622;2024-02-23T11:12:59;7.05;;;4.50;;
78296;SDS011;67555;47.660;19.622;2024-02-23T11:15:29;7.20;;;4.20;;
78296;SDS011;67555;47.660;19.622;2024-02-23T11:17:57;8.05;;;4.40;;
78296;SDS011;67555;47.660;19.622;2024-02-23T11:20:23;9.18;;;4.80;;
78296;SDS011;67555;47.660;19.622;2024-02-23T11:22:53;7.65;;;4.13;;
78296;SDS011;67555;47.660;19.622;2024-02-23T11:25:19;7.57;;;4.07;;
78296;SDS011;67555;47.660;19.622;2024-02-23T11:27:48;5.18;;;3.60;;
78296;SDS011;67555;47.660;19.622;2024-02-23T11:30:16;6.82;;;4.32;;
78296;SDS011;67555;47.660;19.622;2024-02-23T11:32:43;7.95;;;4.10;;
78296;SDS011;67555;47.660;19.622;2024-02-23T11:35:12;7.15;;;4.60;;
78296;SDS011;67555;47.660;19.622;2024-02-23T11:37:56;7.85;;;4.22;;
78296;SDS011;67555;47.660;19.622;2024-02-23T11:40:26;12.10;;;7.28;;
78296;SDS011;67555;47.660;19.622;2024-02-23T11:42:56;19.08;;;10.35;;
78296;SDS011;67555;47.660;19.622;2024-02-23T11:45:23;14.98;;;4.80;;
78296;SDS011;67555;47.660;19.622;2024-02-23T11:47:50;8.85;;;5.60;;
78296;SDS011;67555;47.660;19.622;2024-02-23T11:50:15;8.73;;;6.40;;
78296;SDS011;67555;47.660;19.622;2024-02-23T11:52:44;11.38;;;7.60;;
78296;SDS011;67555;47.660;19.622;2024-02-23T11:55:10;17.55;;;9.15;;
78296;SDS011;67555;47.660;19.622;2024-02-23T11:57:36;14.50;;;7.25;;
78296;SDS011;67555;47.660;19.622;2024-02-23T12:00:06;12.00;;;7.43;;
78296;SDS011;67555;47.660;19.622;2024-02-23T12:02:34;10.93;;;5.72;;
78296;SDS011;67555;47.660;19.622;2024-02-23T12:05:00;12.32;;;6.85;;
78296;SDS011;67555;47.660;19.622;2024-02-23T12:07:27;9.13;;;4.85;;
78296;SDS011;67555;47.660;19.622;2024-02-23T12:09:54;10.98;;;5.40;;
78296;SDS011;67555;47.660;19.622;2024-02-23T12:12:24;6.53;;;4.13;;
78296;SDS011;67555;47.660;19.622;2024-02-23T12:14:51;7.25;;;3.85;;
78296;SDS011;67555;47.660;19.622;2024-02-23T12:17:17;9.40;;;4.40;;
78296;SDS011;67555;47.660;19.622;2024-02-23T12:19:43;7.63;;;3.63;;
78296;SDS011;67555;47.660;19.622;2024-02-23T12:22:12;7.10;;;4.38;;
78296;SDS011;67555;47.660;19.622;2024-02-23T12:24:38;9.48;;;5.70;;
78296;SDS011;67555;47.660;19.622;2024-02-23T12:27:06;8.95;;;4.35;;
78296;SDS011;67555;47.660;19.622;2024-02-23T12:29:32;12.50;;;5.60;;
78296;SDS011;67555;47.660;19.622;2024-02-23T12:32:04;8.70;;;4.60;;
78296;SDS011;67555;47.660;19.622;2024-02-23T12:34:31;14.40;;;7.70;;
78296;SDS011;67555;47.660;19.622;2024-02-23T12:36:57;11.93;;;6.85;;
78296;SDS011;67555;47.660;19.622;2024-02-23T12:39:23;10.55;;;5.50;;
78296;SDS011;67555;47.660;19.622;2024-02-23T12:41:49;10.75;;;6.53;;
78296;SDS011;67555;47.660;19.622;2024-02-23T12:44:15;9.95;;;6.53;;
78296;SDS011;67555;47.660;19.622;2024-02-23T12:46:41;11.30;;;6.47;;
78296;SDS011;67555;47.660;19.622;2024-02-23T12:49:07;9.85;;;5.53;;
78296;SDS011;67555;47.660;19.622;2024-02-23T12:51:33;12.27;;;6.70;;
78296;SDS011;67555;47.660;19.622;2024-02-23T12:53:59;8.32;;;5.00;;
78296;SDS011;67555;47.660;19.622;2024-02-23T12:56:25;14.50;;;7.78;;
78296;SDS011;67555;47.660;19.622;2024-02-23T12:58:51;7.88;;;5.32;;
78296;SDS011;67555;47.660;19.622;2024-02-23T13:01:19;7.13;;;4.57;;
78296;SDS011;67555;47.660;19.622;2024-02-23T13:03:44;6.28;;;3.80;;
78296;SDS011;67555;47.660;19.622;2024-02-23T13:06:10;7.72;;;4.72;;
78296;SDS011;67555;47.660;19.622;2024-02-23T13:08:37;10.02;;;4.90;;
78296;SDS011;67555;47.660;19.622;2024-02-23T13:11:05;5.38;;;4.03;;
78296;SDS011;67555;47.660;19.622;2024-02-23T13:13:31;6.05;;;3.65;;
78296;SDS011;67555;47.660;19.622;2024-02-23T13:15:58;8.70;;;3.97;;
78296;SDS011;67555;47.660;19.622;2024-02-23T13:18:23;6.18;;;3.40;;
78296;SDS011;67555;47.660;19.622;2024-02-23T13:20:49;7.25;;;4.15;;
78296;SDS011;67555;47.660;19.622;2024-02-23T13:23:15;7.50;;;3.70;;
78296;SDS011;67555;47.660;19.622;2024-02-23T13:25:41;10.77;;;5.15;;
78296;SDS011;67555;47.660;19.622;2024-02-23T13:28:08;6.28;;;4.13;;
78296;SDS011;67555;47.660;19.622;2024-02-23T13:30:35;7.80;;;4.30;;
78296;SDS011;67555;47.660;19.622;2024-02-23T13:33:01;10.98;;;3.92;;
78296;SDS011;67555;47.660;19.622;2024-02-23T13:35:27;13.80;;;6.85;;
78296;SDS011;67555;47.660;19.622;2024-02-23T13:37:53;12.77;;;7.18;;
78296;SDS011;67555;47.660;19.622;2024-02-23T13:40:19;12.20;;;6.88;;
78296;SDS011;67555;47.660;19.622;2024-02-23T13:42:45;13.00;;;7.43;;
78296;SDS011;67555;47.660;19.622;2024-02-23T13:45:14;12.07;;;6.70;;
78296;SDS011;67555;47.660;19.622;2024-02-23T13:47:40;7.18;;;4.78;;
78296;SDS011;67555;47.660;19.622;2024-02-23T13:50:06;8.98;;;5.22;;
78296;SDS011;67555;47.660;19.622;2024-02-23T13:52:33;7.95;;;5.45;;
78296;SDS011;67555;47.660;19.622;2024-02-23T13:54:59;7.47;;;4.50;;
78296;SDS011;67555;47.660;19.622;2024-02-23T13:57:25;6.13;;;3.92;;
78296;SDS011;67555;47.660;19.622;2024-02-23T13:59:51;8.18;;;5.25;;
78296;SDS011;67555;47.660;19.622;2024-02-23T14:02:23;11.27;;;5.85;;
78296;SDS011;67555;47.660;19.622;2024-02-23T14:04:50;10.00;;;5.25;;
78296;SDS011;67555;47.660;19.622;2024-02-23T14:07:16;9.68;;;5.47;;
78296;SDS011;67555;47.660;19.622;2024-02-23T14:09:43;10.27;;;5.40;;
78296;SDS011;67555;47.660;19.622;2024-02-23T14:12:08;9.88;;;5.03;;
78296;SDS011;67555;47.660;19.622;2024-02-23T14:14:34;17.73;;;5.22;;
78296;SDS011;67555;47.660;19.622;2024-02-23T14:17:00;12.00;;;6.13;;
78296;SDS011;67555;47.660;19.622;2024-02-23T14:19:25;10.43;;;5.97;;
78296;SDS011;67555;47.660;19.622;2024-02-23T14:21:51;8.05;;;5.50;;
78296;SDS011;67555;47.660;19.622;2024-02-23T14:24:17;29.23;;;12.43;;
78296;SDS011;67555;47.660;19.622;2024-02-23T14:26:43;14.63;;;6.85;;
78296;SDS011;67555;47.660;19.622;2024-02-23T14:29:09;11.68;;;5.65;;
78296;SDS011;67555;47.660;19.622;2024-02-23T14:31:34;12.85;;;7.45;;
78296;SDS011;67555;47.660;19.622;2024-02-23T14:34:00;12.20;;;6.03;;
78296;SDS011;67555;47.660;19.622;2024-02-23T14:36:26;10.35;;;5.82;;